sensor_id;sensor_type;location;lat;lon;timestamp;P1;durP1;ratioP1;P2;durP2;ratioP2
20080;SDS011;10200;49.232;9.222;2022-08-03T00:01:04;4.30;;;1.83;;
20080;SDS011;10200;49.232;9.222;2022-08-03T00:03:30;3.38;;;1.85;;
20080;SDS011;10200;49.232;9.222;2022-08-03T00:05:56;6.40;;;1.85;;
20080;SDS011;10200;49.232;9.222;2022-08-03T00:08:22;1.85;;;1.70;;
20080;SDS011;10200;49.232;9.222;2022-08-03T00:10:47;3.65;;;1.80;;
20080;SDS011;10200;49.232;9.222;2022-08-03T00:13:13;2.80;;;2.53;;
20080;SDS011;10200;49.232;9.222;2022-08-03T00:15:39;2.08;;;1.73;;
20080;SDS011;10200;49.232;9.222;2022-08-03T00:18:06;3.80;;;2.10;;
20080;SDS011;10200;49.232;9.222;2022-08-03T00:20:32;2.00;;;1.80;;
20080;SDS011;10200;49.232;9.222;2022-08-03T00:22:57;2.67;;;1.83;;
20080;SDS011;10200;49.232;9.222;2022-08-03T00:25:23;2.85;;;1.85;;
20080;SDS011;10200;49.232;9.222;2022-08-03T00:27:48;1.42;;;1.33;;
20080;SDS011;10200;49.232;9.222;2022-08-03T00:30:14;4.03;;;1.85;;
20080;SDS011;10200;49.232;9.222;2022-08-03T00:32:40;3.45;;;1.80;;
20080;SDS011;10200;49.232;9.222;2022-08-03T00:35:05;4.95;;;1.67;;
20080;SDS011;10200;49.232;9.222;2022-08-03T00:37:31;2.22;;;1.88;;
20080;SDS011;10200;49.232;9.222;2022-08-03T00:39:57;8.48;;;1.95;;
20080;SDS011;10200;49.232;9.222;2022-08-03T00:42:22;5.38;;;1.88;;
20080;SDS011;10200;49.232;9.222;2022-08-03T00:44:48;2.28;;;1.85;;
20080;SDS011;10200;49.232;9.222;2022-08-03T00:47:13;2.10;;;1.95;;
20080;SDS011;10200;49.232;9.222;2022-08-03T00:49:39;1.90;;;1.80;;
20080;SDS011;10200;49.232;9.222;2022-08-03T00:52:07;3.53;;;1.80;;
20080;SDS011;10200;49.232;9.222;2022-08-03T00:54:34;20.08;;;2.45;;
20080;SDS011;10200;49.232;9.222;2022-08-03T00:57:01;5.40;;;2.15;;
20080;SDS011;10200;49.232;9.222;2022-08-03T00:59:28;4.15;;;2.05;;
20080;SDS011;10200;49.232;9.222;2022-08-03T01:01:54;2.22;;;1.63;;
20080;SDS011;10200;49.232;9.222;2022-08-03T01:04:20;2.10;;;1.67;;
20080;SDS011;10200;49.232;9.222;2022-08-03T01:06:49;1.73;;;1.58;;
20080;SDS011;10200;49.232;9.222;2022-08-03T01:12:01;4.60;;;1.55;;
20080;SDS011;10200;49.232;9.222;2022-08-03T01:18:07;3.60;;;1.40;;
20080;SDS011;10200;49.232;9.222;2022-08-03T01:20:13;2.65;;;1.92;;
20080;SDS011;10200;49.232;9.222;2022-08-03T01:25:40;1.73;;;1.63;;
20080;SDS011;10200;49.232;9.222;2022-08-03T01:31:21;1.58;;;1.48;;
20080;SDS011;10200;49.232;9.222;2022-08-03T01:33:53;1.70;;;1.60;;
20080;SDS011;10200;49.232;9.222;2022-08-03T01:36:23;2.78;;;2.03;;
20080;SDS011;10200;49.232;9.222;2022-08-03T01:38:58;10.25;;;2.22;;
20080;SDS011;10200;49.232;9.222;2022-08-03T01:41:38;1.95;;;1.70;;
20080;SDS011;10200;49.232;9.222;2022-08-03T01:44:07;3.65;;;1.77;;
20080;SDS011;10200;49.232;9.222;2022-08-03T01:46:35;5.63;;;1.58;;
20080;SDS011;10200;49.232;9.222;2022-08-03T01:49:02;3.13;;;1.77;;
20080;SDS011;10200;49.232;9.222;2022-08-03T01:51:32;2.20;;;1.80;;
20080;SDS011;10200;49.232;9.222;2022-08-03T01:53:59;3.60;;;1.95;;
20080;SDS011;10200;49.232;9.222;2022-08-03T01:56:25;2.10;;;1.90;;
20080;SDS011;10200;49.232;9.222;2022-08-03T01:58:53;3.13;;;1.67;;
20080;SDS011;10200;49.232;9.222;2022-08-03T02:01:20;3.55;;;1.83;;
20080;SDS011;10200;49.232;9.222;2022-08-03T02:03:48;1.70;;;1.60;;
20080;SDS011;10200;49.232;9.222;2022-08-03T02:06:15;2.13;;;1.73;;
20080;SDS011;10200;49.232;9.222;2022-08-03T02:08:44;5.15;;;2.00;;
20080;SDS011;10200;49.232;9.222;2022-08-03T02:11:12;27.58;;;3.15;;
20080;SDS011;10200;49.232;9.222;2022-08-03T02:13:38;7.28;;;2.85;;
20080;SDS011;10200;49.232;9.222;2022-08-03T02:16:04;2.00;;;1.90;;
20080;SDS011;10200;49.232;9.222;2022-08-03T02:18:31;2.53;;;1.80;;
20080;SDS011;10200;49.232;9.222;2022-08-03T02:20:59;2.17;;;1.80;;
20080;SDS011;10200;49.232;9.222;2022-08-03T02:23:27;6.22;;;1.83;;
20080;SDS011;10200;49.232;9.222;2022-08-03T02:25:54;3.13;;;2.03;;
20080;SDS011;10200;49.232;9.222;2022-08-03T02:28:25;3.08;;;2.03;;
20080;SDS011;10200;49.232;9.222;2022-08-03T02:30:57;4.72;;;1.65;;
20080;SDS011;10200;49.232;9.222;2022-08-03T02:33:27;4.00;;;1.58;;
20080;SDS011;10200;49.232;9.222;2022-08-03T02:35:56;1.77;;;1.60;;
20080;SDS011;10200;49.232;9.222;2022-08-03T02:38:25;1.75;;;1.42;;
20080;SDS011;10200;49.232;9.222;2022-08-03T02:40:56;2.92;;;1.73;;
20080;SDS011;10200;49.232;9.222;2022-08-03T02:43:24;4.18;;;2.95;;
20080;SDS011;10200;49.232;9.222;2022-08-03T02:45:53;2.20;;;2.00;;
20080;SDS011;10200;49.232;9.222;2022-08-03T02:48:22;4.32;;;1.80;;
20080;SDS011;10200;49.232;9.222;2022-08-03T02:50:52;2.30;;;1.75;;
20080;SDS011;10200;49.232;9.222;2022-08-03T02:53:21;3.03;;;1.63;;
20080;SDS011;10200;49.232;9.222;2022-08-03T02:55:47;2.83;;;1.90;;
20080;SDS011;10200;49.232;9.222;2022-08-03T02:58:16;4.00;;;1.75;;
20080;SDS011;10200;49.232;9.222;2022-08-03T03:00:43;2.30;;;1.40;;
20080;SDS011;10200;49.232;9.222;2022-08-03T03:03:10;2.10;;;1.80;;
20080;SDS011;10200;49.232;9.222;2022-08-03T03:05:36;3.22;;;2.00;;
20080;SDS011;10200;49.232;9.222;2022-08-03T03:08:04;2.30;;;1.90;;
20080;SDS011;10200;49.232;9.222;2022-08-03T03:10:30;2.22;;;1.80;;
20080;SDS011;10200;49.232;9.222;2022-08-03T03:12:56;1.55;;;1.45;;
20080;SDS011;10200;49.232;9.222;2022-08-03T03:15:24;2.10;;;1.80;;
20080;SDS011;10200;49.232;9.222;2022-08-03T03:17:51;2.70;;;2.05;;
20080;SDS011;10200;49.232;9.222;2022-08-03T03:20:17;1.90;;;1.70;;
20080;SDS011;10200;49.232;9.222;2022-08-03T03:22:44;7.10;;;1.95;;
20080;SDS011;10200;49.232;9.222;2022-08-03T03:25:12;3.35;;;2.05;;
20080;SDS011;10200;49.232;9.222;2022-08-03T03:27:38;2.00;;;1.90;;
20080;SDS011;10200;49.232;9.222;2022-08-03T03:30:04;1.90;;;1.73;;
20080;SDS011;10200;49.232;9.222;2022-08-03T03:32:30;2.20;;;2.00;;
20080;SDS011;10200;49.232;9.222;2022-08-03T03:34:56;2.15;;;1.95;;
20080;SDS011;10200;49.232;9.222;2022-08-03T03:37:23;3.00;;;1.88;;
20080;SDS011;10200;49.232;9.222;2022-08-03T03:39:52;4.43;;;2.22;;
20080;SDS011;10200;49.232;9.222;2022-08-03T03:42:18;25.02;;;3.35;;
20080;SDS011;10200;49.232;9.222;2022-08-03T03:44:44;2.22;;;1.92;;
20080;SDS011;10200;49.232;9.222;2022-08-03T03:47:10;2.28;;;2.08;;
20080;SDS011;10200;49.232;9.222;2022-08-03T03:49:35;2.97;;;1.65;;
20080;SDS011;10200;49.232;9.222;2022-08-03T03:52:01;2.28;;;2.08;;
20080;SDS011;10200;49.232;9.222;2022-08-03T03:54:37;2.47;;;2.28;;
20080;SDS011;10200;49.232;9.222;2022-08-03T03:57:05;2.58;;;2.38;;
20080;SDS011;10200;49.232;9.222;2022-08-03T03:59:30;2.47;;;2.10;;
20080;SDS011;10200;49.232;9.222;2022-08-03T04:01:57;2.50;;;1.92;;
20080;SDS011;10200;49.232;9.222;2022-08-03T04:04:22;1.80;;;1.70;;
20080;SDS011;10200;49.232;9.222;2022-08-03T04:07:06;4.95;;;1.98;;
20080;SDS011;10200;49.232;9.222;2022-08-03T04:10:01;2.45;;;2.25;;
20080;SDS011;10200;49.232;9.222;2022-08-03T04:12:48;2.10;;;1.90;;
20080;SDS011;10200;49.232;9.222;2022-08-03T04:15:16;2.13;;;1.93;;
20080;SDS011;10200;49.232;9.222;2022-08-03T04:17:44;4.47;;;2.08;;
20080;SDS011;10200;49.232;9.222;2022-08-03T04:20:12;2.53;;;1.83;;
20080;SDS011;10200;49.232;9.222;2022-08-03T04:22:39;2.10;;;1.92;;
20080;SDS011;10200;49.232;9.222;2022-08-03T04:25:06;2.58;;;2.38;;
20080;SDS011;10200;49.232;9.222;2022-08-03T04:27:35;5.05;;;2.50;;
20080;SDS011;10200;49.232;9.222;2022-08-03T04:30:04;4.40;;;2.10;;
20080;SDS011;10200;49.232;9.222;2022-08-03T04:32:31;2.30;;;2.10;;
20080;SDS011;10200;49.232;9.222;2022-08-03T04:34:57;2.58;;;2.15;;
20080;SDS011;10200;49.232;9.222;2022-08-03T04:37:25;3.33;;;2.47;;
20080;SDS011;10200;49.232;9.222;2022-08-03T04:40:08;2.13;;;2.00;;
20080;SDS011;10200;49.232;9.222;2022-08-03T04:42:36;3.40;;;2.20;;
20080;SDS011;10200;49.232;9.222;2022-08-03T04:45:04;2.08;;;1.95;;
20080;SDS011;10200;49.232;9.222;2022-08-03T04:47:31;2.83;;;2.28;;
20080;SDS011;10200;49.232;9.222;2022-08-03T04:49:59;3.20;;;2.90;;
20080;SDS011;10200;49.232;9.222;2022-08-03T04:52:26;2.97;;;2.13;;
20080;SDS011;10200;49.232;9.222;2022-08-03T04:54:51;2.83;;;2.50;;
20080;SDS011;10200;49.232;9.222;2022-08-03T04:57:17;2.60;;;2.30;;
20080;SDS011;10200;49.232;9.222;2022-08-03T04:59:43;8.40;;;2.22;;
20080;SDS011;10200;49.232;9.222;2022-08-03T05:02:09;2.35;;;1.90;;
20080;SDS011;10200;49.232;9.222;2022-08-03T05:04:34;4.65;;;2.42;;
20080;SDS011;10200;49.232;9.222;2022-08-03T05:07:01;2.25;;;2.05;;
20080;SDS011;10200;49.232;9.222;2022-08-03T05:09:27;2.10;;;1.85;;
20080;SDS011;10200;49.232;9.222;2022-08-03T05:11:53;3.22;;;1.80;;
20080;SDS011;10200;49.232;9.222;2022-08-03T05:14:19;2.03;;;1.83;;
20080;SDS011;10200;49.232;9.222;2022-08-03T05:16:45;1.95;;;1.77;;
20080;SDS011;10200;49.232;9.222;2022-08-03T05:19:10;3.50;;;1.90;;
20080;SDS011;10200;49.232;9.222;2022-08-03T05:21:36;4.55;;;1.90;;
20080;SDS011;10200;49.232;9.222;2022-08-03T05:24:02;15.70;;;2.15;;
20080;SDS011;10200;49.232;9.222;2022-08-03T05:26:28;2.22;;;2.03;;
20080;SDS011;10200;49.232;9.222;2022-08-03T05:28:53;4.90;;;1.55;;
20080;SDS011;10200;49.232;9.222;2022-08-03T05:31:19;2.05;;;1.70;;
20080;SDS011;10200;49.232;9.222;2022-08-03T05:33:44;1.83;;;1.73;;
20080;SDS011;10200;49.232;9.222;2022-08-03T05:36:12;3.33;;;1.77;;
20080;SDS011;10200;49.232;9.222;2022-08-03T05:38:38;1.60;;;1.50;;
20080;SDS011;10200;49.232;9.222;2022-08-03T05:41:03;1.80;;;1.70;;
20080;SDS011;10200;49.232;9.222;2022-08-03T05:43:30;1.98;;;1.55;;
20080;SDS011;10200;49.232;9.222;2022-08-03T05:45:57;2.15;;;1.92;;
20080;SDS011;10200;49.232;9.222;2022-08-03T05:48:24;1.67;;;1.58;;
20080;SDS011;10200;49.232;9.222;2022-08-03T05:50:50;1.60;;;1.50;;
20080;SDS011;10200;49.232;9.222;2022-08-03T05:53:16;1.70;;;1.60;;
20080;SDS011;10200;49.232;9.222;2022-08-03T05:55:41;3.10;;;1.73;;
20080;SDS011;10200;49.232;9.222;2022-08-03T05:58:07;2.13;;;1.92;;
20080;SDS011;10200;49.232;9.222;2022-08-03T06:00:32;1.70;;;1.60;;
20080;SDS011;10200;49.232;9.222;2022-08-03T06:02:58;1.80;;;1.70;;
20080;SDS011;10200;49.232;9.222;2022-08-03T06:05:24;3.38;;;1.88;;
20080;SDS011;10200;49.232;9.222;2022-08-03T06:07:52;1.90;;;1.50;;
20080;SDS011;10200;49.232;9.222;2022-08-03T06:10:17;1.75;;;1.55;;
20080;SDS011;10200;49.232;9.222;2022-08-03T06:12:44;1.98;;;1.60;;
20080;SDS011;10200;49.232;9.222;2022-08-03T06:15:13;1.70;;;1.60;;
20080;SDS011;10200;49.232;9.222;2022-08-03T06:17:49;2.63;;;1.70;;
20080;SDS011;10200;49.232;9.222;2022-08-03T06:20:16;1.80;;;1.50;;
20080;SDS011;10200;49.232;9.222;2022-08-03T06:22:43;2.13;;;1.63;;
20080;SDS011;10200;49.232;9.222;2022-08-03T06:25:09;1.58;;;1.48;;
20080;SDS011;10200;49.232;9.222;2022-08-03T06:27:35;2.72;;;1.58;;
20080;SDS011;10200;49.232;9.222;2022-08-03T06:30:04;2.03;;;1.60;;
20080;SDS011;10200;49.232;9.222;2022-08-03T06:32:30;4.40;;;1.48;;
20080;SDS011;10200;49.232;9.222;2022-08-03T06:34:57;2.42;;;1.80;;
20080;SDS011;10200;49.232;9.222;2022-08-03T06:37:23;3.55;;;1.90;;
20080;SDS011;10200;49.232;9.222;2022-08-03T06:39:51;2.10;;;1.40;;
20080;SDS011;10200;49.232;9.222;2022-08-03T06:42:17;3.25;;;1.63;;
20080;SDS011;10200;49.232;9.222;2022-08-03T06:44:42;1.98;;;1.60;;
20080;SDS011;10200;49.232;9.222;2022-08-03T06:47:08;1.88;;;1.77;;
20080;SDS011;10200;49.232;9.222;2022-08-03T06:49:33;1.95;;;1.60;;
20080;SDS011;10200;49.232;9.222;2022-08-03T06:51:59;4.60;;;1.52;;
20080;SDS011;10200;49.232;9.222;2022-08-03T06:54:25;1.85;;;1.60;;
20080;SDS011;10200;49.232;9.222;2022-08-03T06:56:51;2.72;;;1.70;;
20080;SDS011;10200;49.232;9.222;2022-08-03T06:59:17;2.08;;;1.75;;
20080;SDS011;10200;49.232;9.222;2022-08-03T07:01:43;1.65;;;1.55;;
20080;SDS011;10200;49.232;9.222;2022-08-03T07:04:09;1.40;;;1.30;;
20080;SDS011;10200;49.232;9.222;2022-08-03T07:06:36;2.60;;;1.60;;
20080;SDS011;10200;49.232;9.222;2022-08-03T07:09:02;3.75;;;1.63;;
20080;SDS011;10200;49.232;9.222;2022-08-03T07:11:28;1.70;;;1.60;;
20080;SDS011;10200;49.232;9.222;2022-08-03T07:13:53;4.90;;;1.75;;
20080;SDS011;10200;49.232;9.222;2022-08-03T07:16:20;1.92;;;1.70;;
20080;SDS011;10200;49.232;9.222;2022-08-03T07:18:46;2.85;;;1.75;;
20080;SDS011;10200;49.232;9.222;2022-08-03T07:21:11;3.10;;;1.65;;
20080;SDS011;10200;49.232;9.222;2022-08-03T07:23:37;2.53;;;1.85;;
20080;SDS011;10200;49.232;9.222;2022-08-03T07:26:03;2.20;;;1.50;;
20080;SDS011;10200;49.232;9.222;2022-08-03T07:28:29;2.10;;;1.88;;
20080;SDS011;10200;49.232;9.222;2022-08-03T07:30:54;2.40;;;2.00;;
20080;SDS011;10200;49.232;9.222;2022-08-03T07:33:20;2.83;;;1.60;;
20080;SDS011;10200;49.232;9.222;2022-08-03T07:35:46;2.30;;;1.70;;
20080;SDS011;10200;49.232;9.222;2022-08-03T07:38:11;2.72;;;2.08;;
20080;SDS011;10200;49.232;9.222;2022-08-03T07:40:37;1.70;;;1.60;;
20080;SDS011;10200;49.232;9.222;2022-08-03T07:43:03;5.45;;;1.88;;
20080;SDS011;10200;49.232;9.222;2022-08-03T07:45:31;3.80;;;1.77;;
20080;SDS011;10200;49.232;9.222;2022-08-03T07:47:57;1.65;;;1.42;;
20080;SDS011;10200;49.232;9.222;2022-08-03T07:50:23;1.80;;;1.70;;
20080;SDS011;10200;49.232;9.222;2022-08-03T07:52:49;3.90;;;1.80;;
20080;SDS011;10200;49.232;9.222;2022-08-03T07:55:19;1.92;;;1.50;;
20080;SDS011;10200;49.232;9.222;2022-08-03T07:57:47;1.42;;;1.33;;
20080;SDS011;10200;49.232;9.222;2022-08-03T08:00:43;2.30;;;1.65;;
20080;SDS011;10200;49.232;9.222;2022-08-03T08:03:09;2.25;;;1.90;;
20080;SDS011;10200;49.232;9.222;2022-08-03T08:05:35;1.95;;;1.80;;
20080;SDS011;10200;49.232;9.222;2022-08-03T08:08:01;2.40;;;1.67;;
20080;SDS011;10200;49.232;9.222;2022-08-03T08:10:27;2.88;;;2.15;;
20080;SDS011;10200;49.232;9.222;2022-08-03T08:12:53;4.68;;;1.40;;
20080;SDS011;10200;49.232;9.222;2022-08-03T08:15:19;2.63;;;1.38;;
20080;SDS011;10200;49.232;9.222;2022-08-03T08:17:45;1.98;;;1.50;;
20080;SDS011;10200;49.232;9.222;2022-08-03T08:20:17;4.47;;;1.50;;
20080;SDS011;10200;49.232;9.222;2022-08-03T08:22:44;3.72;;;1.85;;
20080;SDS011;10200;49.232;9.222;2022-08-03T08:25:10;1.58;;;1.35;;
20080;SDS011;10200;49.232;9.222;2022-08-03T08:27:40;4.22;;;1.63;;
20080;SDS011;10200;49.232;9.222;2022-08-03T08:30:10;1.48;;;1.38;;
20080;SDS011;10200;49.232;9.222;2022-08-03T08:32:37;2.00;;;1.75;;
20080;SDS011;10200;49.232;9.222;2022-08-03T08:35:03;2.33;;;1.40;;
20080;SDS011;10200;49.232;9.222;2022-08-03T08:37:30;3.75;;;1.55;;
20080;SDS011;10200;49.232;9.222;2022-08-03T08:39:55;1.75;;;1.42;;
20080;SDS011;10200;49.232;9.222;2022-08-03T08:42:21;4.00;;;1.50;;
20080;SDS011;10200;49.232;9.222;2022-08-03T08:44:47;1.58;;;1.48;;
20080;SDS011;10200;49.232;9.222;2022-08-03T08:47:13;2.42;;;1.10;;
20080;SDS011;10200;49.232;9.222;2022-08-03T08:49:39;1.45;;;1.10;;
20080;SDS011;10200;49.232;9.222;2022-08-03T08:52:08;2.53;;;1.42;;
20080;SDS011;10200;49.232;9.222;2022-08-03T08:54:35;3.55;;;1.30;;
20080;SDS011;10200;49.232;9.222;2022-08-03T08:57:04;2.95;;;1.30;;
20080;SDS011;10200;49.232;9.222;2022-08-03T08:59:32;2.58;;;1.20;;
20080;SDS011;10200;49.232;9.222;2022-08-03T09:02:00;16.35;;;2.47;;
20080;SDS011;10200;49.232;9.222;2022-08-03T09:04:29;1.80;;;1.45;;
20080;SDS011;10200;49.232;9.222;2022-08-03T09:06:55;1.58;;;1.48;;
20080;SDS011;10200;49.232;9.222;2022-08-03T09:09:21;1.75;;;1.23;;
20080;SDS011;10200;49.232;9.222;2022-08-03T09:11:47;0.90;;;0.90;;
20080;SDS011;10200;49.232;9.222;2022-08-03T09:14:13;1.40;;;1.30;;
20080;SDS011;10200;49.232;9.222;2022-08-03T09:16:53;1.92;;;1.42;;
20080;SDS011;10200;49.232;9.222;2022-08-03T09:19:24;1.80;;;1.30;;
20080;SDS011;10200;49.232;9.222;2022-08-03T09:22:05;1.30;;;1.20;;
20080;SDS011;10200;49.232;9.222;2022-08-03T09:24:36;2.70;;;1.13;;
20080;SDS011;10200;49.232;9.222;2022-08-03T09:27:17;4.07;;;1.38;;
20080;SDS011;10200;49.232;9.222;2022-08-03T09:29:46;1.30;;;1.20;;
20080;SDS011;10200;49.232;9.222;2022-08-03T09:32:13;1.33;;;1.15;;
20080;SDS011;10200;49.232;9.222;2022-08-03T09:34:40;1.35;;;1.25;;
20080;SDS011;10200;49.232;9.222;2022-08-03T09:37:13;2.20;;;1.70;;
20080;SDS011;10200;49.232;9.222;2022-08-03T09:39:44;1.80;;;1.40;;
20080;SDS011;10200;49.232;9.222;2022-08-03T09:42:17;2.13;;;1.23;;
20080;SDS011;10200;49.232;9.222;2022-08-03T09:44:46;2.45;;;1.30;;
20080;SDS011;10200;49.232;9.222;2022-08-03T09:47:14;1.20;;;1.10;;
20080;SDS011;10200;49.232;9.222;2022-08-03T09:49:58;1.85;;;1.10;;
20080;SDS011;10200;49.232;9.222;2022-08-03T09:52:30;1.45;;;0.98;;
20080;SDS011;10200;49.232;9.222;2022-08-03T09:55:01;2.67;;;1.23;;
20080;SDS011;10200;49.232;9.222;2022-08-03T09:57:32;3.50;;;1.73;;
20080;SDS011;10200;49.232;9.222;2022-08-03T10:00:05;5.10;;;1.30;;
20080;SDS011;10200;49.232;9.222;2022-08-03T10:02:36;1.10;;;1.00;;
20080;SDS011;10200;49.232;9.222;2022-08-03T10:05:02;1.25;;;1.15;;
20080;SDS011;10200;49.232;9.222;2022-08-03T10:07:28;1.80;;;1.05;;
20080;SDS011;10200;49.232;9.222;2022-08-03T10:10:03;2.78;;;1.20;;
20080;SDS011;10200;49.232;9.222;2022-08-03T10:12:28;1.38;;;1.05;;
20080;SDS011;10200;49.232;9.222;2022-08-03T10:14:54;1.58;;;1.20;;
20080;SDS011;10200;49.232;9.222;2022-08-03T10:17:20;2.10;;;1.20;;
20080;SDS011;10200;49.232;9.222;2022-08-03T10:19:46;2.10;;;1.10;;
20080;SDS011;10200;49.232;9.222;2022-08-03T10:22:22;1.50;;;1.30;;
20080;SDS011;10200;49.232;9.222;2022-08-03T10:25:07;1.20;;;1.10;;
20080;SDS011;10200;49.232;9.222;2022-08-03T10:27:38;1.45;;;1.35;;
20080;SDS011;10200;49.232;9.222;2022-08-03T10:30:09;1.13;;;1.02;;
20080;SDS011;10200;49.232;9.222;2022-08-03T10:32:50;1.60;;;1.50;;
20080;SDS011;10200;49.232;9.222;2022-08-03T10:35:21;1.20;;;1.10;;
20080;SDS011;10200;49.232;9.222;2022-08-03T10:37:54;1.48;;;1.20;;
20080;SDS011;10200;49.232;9.222;2022-08-03T10:40:23;5.20;;;1.63;;
20080;SDS011;10200;49.232;9.222;2022-08-03T10:42:53;1.88;;;0.90;;
20080;SDS011;10200;49.232;9.222;2022-08-03T10:45:24;2.40;;;1.40;;
20080;SDS011;10200;49.232;9.222;2022-08-03T10:47:51;1.63;;;1.20;;
20080;SDS011;10200;49.232;9.222;2022-08-03T10:50:18;2.15;;;1.35;;
20080;SDS011;10200;49.232;9.222;2022-08-03T10:52:53;1.30;;;1.20;;
20080;SDS011;10200;49.232;9.222;2022-08-03T10:55:29;1.63;;;1.20;;
20080;SDS011;10200;49.232;9.222;2022-08-03T10:58:40;2.42;;;1.52;;
20080;SDS011;10200;49.232;9.222;2022-08-03T11:01:01;4.53;;;1.27;;
20080;SDS011;10200;49.232;9.222;2022-08-03T11:03:28;2.03;;;1.35;;
20080;SDS011;10200;49.232;9.222;2022-08-03T11:05:55;2.60;;;1.05;;
20080;SDS011;10200;49.232;9.222;2022-08-03T11:08:48;1.05;;;0.80;;
20080;SDS011;10200;49.232;9.222;2022-08-03T11:11:37;2.53;;;1.33;;
20080;SDS011;10200;49.232;9.222;2022-08-03T11:14:20;1.50;;;1.40;;
20080;SDS011;10200;49.232;9.222;2022-08-03T11:16:49;2.92;;;1.23;;
20080;SDS011;10200;49.232;9.222;2022-08-03T11:19:44;2.40;;;1.50;;
20080;SDS011;10200;49.232;9.222;2022-08-03T11:22:14;3.00;;;1.33;;
20080;SDS011;10200;49.232;9.222;2022-08-03T11:35:15;0.90;;;0.90;;
20080;SDS011;10200;49.232;9.222;2022-08-03T11:48:26;1.60;;;1.30;;
20080;SDS011;10200;49.232;9.222;2022-08-03T11:50:57;1.55;;;0.82;;
20080;SDS011;10200;49.232;9.222;2022-08-03T11:53:27;1.40;;;1.10;;
20080;SDS011;10200;49.232;9.222;2022-08-03T11:55:57;1.17;;;1.00;;
20080;SDS011;10200;49.232;9.222;2022-08-03T11:58:23;1.05;;;1.00;;
20080;SDS011;10200;49.232;9.222;2022-08-03T12:00:49;1.20;;;1.10;;
20080;SDS011;10200;49.232;9.222;2022-08-03T12:03:16;2.50;;;0.88;;
20080;SDS011;10200;49.232;9.222;2022-08-03T12:05:50;1.45;;;1.02;;
20080;SDS011;10200;49.232;9.222;2022-08-03T12:08:28;2.45;;;1.30;;
20080;SDS011;10200;49.232;9.222;2022-08-03T12:10:56;1.08;;;0.90;;
20080;SDS011;10200;49.232;9.222;2022-08-03T12:13:23;0.93;;;0.93;;
20080;SDS011;10200;49.232;9.222;2022-08-03T12:15:55;1.45;;;0.90;;
20080;SDS011;10200;49.232;9.222;2022-08-03T12:18:23;2.17;;;1.20;;
20080;SDS011;10200;49.232;9.222;2022-08-03T12:20:49;1.05;;;1.02;;
20080;SDS011;10200;49.232;9.222;2022-08-03T12:23:16;1.10;;;1.00;;
20080;SDS011;10200;49.232;9.222;2022-08-03T12:25:43;1.45;;;1.33;;
20080;SDS011;10200;49.232;9.222;2022-08-03T12:28:14;1.45;;;1.20;;
20080;SDS011;10200;49.232;9.222;2022-08-03T12:30:41;1.35;;;1.10;;
20080;SDS011;10200;49.232;9.222;2022-08-03T12:33:25;1.15;;;0.98;;
20080;SDS011;10200;49.232;9.222;2022-08-03T12:36:02;0.95;;;0.95;;
20080;SDS011;10200;49.232;9.222;2022-08-03T12:38:33;0.88;;;0.88;;
20080;SDS011;10200;49.232;9.222;2022-08-03T12:41:02;0.80;;;0.80;;
20080;SDS011;10200;49.232;9.222;2022-08-03T12:43:29;1.15;;;1.05;;
20080;SDS011;10200;49.232;9.222;2022-08-03T12:46:05;0.98;;;0.90;;
20080;SDS011;10200;49.232;9.222;2022-08-03T12:48:32;1.10;;;1.08;;
20080;SDS011;10200;49.232;9.222;2022-08-03T12:51:10;1.05;;;1.02;;
20080;SDS011;10200;49.232;9.222;2022-08-03T12:53:36;1.15;;;1.05;;
20080;SDS011;10200;49.232;9.222;2022-08-03T12:56:02;1.27;;;1.17;;
20080;SDS011;10200;49.232;9.222;2022-08-03T12:58:29;1.20;;;0.88;;
20080;SDS011;10200;49.232;9.222;2022-08-03T13:00:57;2.92;;;1.30;;
20080;SDS011;10200;49.232;9.222;2022-08-03T13:03:23;1.42;;;0.98;;
20080;SDS011;10200;49.232;9.222;2022-08-03T13:05:49;1.27;;;1.17;;
20080;SDS011;10200;49.232;9.222;2022-08-03T13:08:22;1.77;;;1.10;;
20080;SDS011;10200;49.232;9.222;2022-08-03T13:10:49;1.98;;;1.08;;
20080;SDS011;10200;49.232;9.222;2022-08-03T13:13:15;3.08;;;1.00;;
20080;SDS011;10200;49.232;9.222;2022-08-03T13:15:41;4.55;;;1.02;;
20080;SDS011;10200;49.232;9.222;2022-08-03T13:18:06;1.83;;;1.17;;
20080;SDS011;10200;49.232;9.222;2022-08-03T13:20:32;1.27;;;0.95;;
20080;SDS011;10200;49.232;9.222;2022-08-03T13:23:00;1.70;;;1.15;;
20080;SDS011;10200;49.232;9.222;2022-08-03T13:25:26;1.00;;;1.00;;
20080;SDS011;10200;49.232;9.222;2022-08-03T13:27:51;1.88;;;0.95;;
20080;SDS011;10200;49.232;9.222;2022-08-03T13:30:17;0.80;;;0.80;;
20080;SDS011;10200;49.232;9.222;2022-08-03T13:32:43;1.77;;;1.15;;
20080;SDS011;10200;49.232;9.222;2022-08-03T13:35:09;2.30;;;1.10;;
20080;SDS011;10200;49.232;9.222;2022-08-03T13:37:35;0.90;;;0.90;;
20080;SDS011;10200;49.232;9.222;2022-08-03T13:40:01;2.85;;;1.05;;
20080;SDS011;10200;49.232;9.222;2022-08-03T13:42:30;1.60;;;1.50;;
20080;SDS011;10200;49.232;9.222;2022-08-03T13:44:57;1.33;;;1.23;;
20080;SDS011;10200;49.232;9.222;2022-08-03T13:47:23;1.98;;;1.00;;
20080;SDS011;10200;49.232;9.222;2022-08-03T13:49:49;1.15;;;0.90;;
20080;SDS011;10200;49.232;9.222;2022-08-03T13:52:17;3.33;;;1.00;;
20080;SDS011;10200;49.232;9.222;2022-08-03T13:54:43;3.92;;;1.13;;
20080;SDS011;10200;49.232;9.222;2022-08-03T13:57:08;0.75;;;0.75;;
20080;SDS011;10200;49.232;9.222;2022-08-03T13:59:35;1.20;;;1.10;;
20080;SDS011;10200;49.232;9.222;2022-08-03T14:02:01;1.60;;;1.15;;
20080;SDS011;10200;49.232;9.222;2022-08-03T14:04:28;1.50;;;0.98;;
20080;SDS011;10200;49.232;9.222;2022-08-03T14:06:54;1.40;;;1.30;;
20080;SDS011;10200;49.232;9.222;2022-08-03T14:09:20;1.13;;;0.90;;
20080;SDS011;10200;49.232;9.222;2022-08-03T14:11:45;0.93;;;0.80;;
20080;SDS011;10200;49.232;9.222;2022-08-03T14:14:11;0.85;;;0.85;;
20080;SDS011;10200;49.232;9.222;2022-08-03T14:16:37;1.67;;;1.17;;
20080;SDS011;10200;49.232;9.222;2022-08-03T14:19:03;1.30;;;1.20;;
20080;SDS011;10200;49.232;9.222;2022-08-03T14:21:30;1.38;;;1.25;;
20080;SDS011;10200;49.232;9.222;2022-08-03T14:23:57;0.88;;;0.88;;
20080;SDS011;10200;49.232;9.222;2022-08-03T14:26:23;4.95;;;1.20;;
20080;SDS011;10200;49.232;9.222;2022-08-03T14:28:48;0.95;;;0.90;;
20080;SDS011;10200;49.232;9.222;2022-08-03T14:31:14;0.80;;;0.80;;
20080;SDS011;10200;49.232;9.222;2022-08-03T14:33:40;3.95;;;1.10;;
20080;SDS011;10200;49.232;9.222;2022-08-03T14:36:05;0.90;;;0.90;;
20080;SDS011;10200;49.232;9.222;2022-08-03T14:38:31;2.08;;;1.38;;
20080;SDS011;10200;49.232;9.222;2022-08-03T14:40:57;1.50;;;0.90;;
20080;SDS011;10200;49.232;9.222;2022-08-03T14:43:22;0.88;;;0.88;;
20080;SDS011;10200;49.232;9.222;2022-08-03T14:45:49;2.35;;;1.00;;
20080;SDS011;10200;49.232;9.222;2022-08-03T14:48:17;1.25;;;1.00;;
20080;SDS011;10200;49.232;9.222;2022-08-03T14:50:46;1.33;;;1.10;;
20080;SDS011;10200;49.232;9.222;2022-08-03T14:53:12;0.85;;;0.85;;
20080;SDS011;10200;49.232;9.222;2022-08-03T14:55:38;1.25;;;1.15;;
20080;SDS011;10200;49.232;9.222;2022-08-03T14:58:04;1.50;;;1.20;;
20080;SDS011;10200;49.232;9.222;2022-08-03T15:00:33;1.08;;;0.85;;
20080;SDS011;10200;49.232;9.222;2022-08-03T15:02:59;1.02;;;0.95;;
20080;SDS011;10200;49.232;9.222;2022-08-03T15:05:25;1.55;;;1.02;;
20080;SDS011;10200;49.232;9.222;2022-08-03T15:07:51;0.88;;;0.77;;
20080;SDS011;10200;49.232;9.222;2022-08-03T15:10:16;2.40;;;0.93;;
20080;SDS011;10200;49.232;9.222;2022-08-03T15:12:44;2.75;;;1.00;;
20080;SDS011;10200;49.232;9.222;2022-08-03T15:15:09;1.65;;;1.13;;
20080;SDS011;10200;49.232;9.222;2022-08-03T15:17:35;1.70;;;1.20;;
20080;SDS011;10200;49.232;9.222;2022-08-03T15:20:01;0.90;;;0.90;;
20080;SDS011;10200;49.232;9.222;2022-08-03T15:22:27;3.42;;;0.80;;
20080;SDS011;10200;49.232;9.222;2022-08-03T15:24:53;2.85;;;1.30;;
20080;SDS011;10200;49.232;9.222;2022-08-03T15:27:20;1.23;;;1.13;;